sensor_id;sensor_type;location;lat;lon;timestamp;P1;durP1;ratioP1;P2;durP2;ratioP2
727;SDS011;347;48.780;9.158;2023-03-08T00:00:32;14.63;;;13.53;;
727;SDS011;347;48.780;9.158;2023-03-08T00:02:57;13.97;;;12.97;;
727;SDS011;347;48.780;9.158;2023-03-08T00:05:23;13.27;;;12.40;;
727;SDS011;347;48.780;9.158;2023-03-08T00:07:51;12.33;;;11.53;;
727;SDS011;347;48.780;9.158;2023-03-08T00:10:17;13.17;;;12.07;;
727;SDS011;347;48.780;9.158;2023-03-08T00:12:43;13.10;;;12.20;;
727;SDS011;347;48.780;9.158;2023-03-08T00:15:09;14.03;;;13.03;;
727;SDS011;347;48.780;9.158;2023-03-08T00:17:35;13.23;;;12.33;;
727;SDS011;347;48.780;9.158;2023-03-08T00:20:03;13.77;;;12.87;;
727;SDS011;347;48.780;9.158;2023-03-08T00:22:37;13.80;;;12.90;;
727;SDS011;347;48.780;9.158;2023-03-08T00:25:04;14.57;;;13.50;;
727;SDS011;347;48.780;9.158;2023-03-08T00:27:30;13.53;;;12.43;;
727;SDS011;347;48.780;9.158;2023-03-08T00:29:56;13.67;;;12.80;;
727;SDS011;347;48.780;9.158;2023-03-08T00:32:25;13.93;;;13.03;;
727;SDS011;347;48.780;9.158;2023-03-08T00:34:51;14.57;;;13.57;;
727;SDS011;347;48.780;9.158;2023-03-08T00:37:17;14.60;;;13.60;;
727;SDS011;347;48.780;9.158;2023-03-08T00:39:44;14.77;;;13.67;;
727;SDS011;347;48.780;9.158;2023-03-08T00:42:14;14.93;;;13.93;;
727;SDS011;347;48.780;9.158;2023-03-08T00:44:39;15.00;;;13.93;;
727;SDS011;347;48.780;9.158;2023-03-08T00:47:05;15.50;;;14.33;;
727;SDS011;347;48.780;9.158;2023-03-08T00:49:30;14.67;;;13.67;;
727;SDS011;347;48.780;9.158;2023-03-08T00:51:56;16.00;;;14.80;;
727;SDS011;347;48.780;9.158;2023-03-08T00:54:22;15.93;;;14.83;;
727;SDS011;347;48.780;9.158;2023-03-08T00:56:47;16.63;;;15.53;;
727;SDS011;347;48.780;9.158;2023-03-08T00:59:13;15.67;;;14.60;;
727;SDS011;347;48.780;9.158;2023-03-08T01:01:38;15.50;;;14.40;;
727;SDS011;347;48.780;9.158;2023-03-08T01:04:04;16.30;;;14.90;;
727;SDS011;347;48.780;9.158;2023-03-08T01:06:30;15.70;;;14.40;;
727;SDS011;347;48.780;9.158;2023-03-08T01:08:55;15.37;;;14.37;;
727;SDS011;347;48.780;9.158;2023-03-08T01:11:23;17.47;;;16.17;;
727;SDS011;347;48.780;9.158;2023-03-08T01:13:50;16.20;;;14.90;;
727;SDS011;347;48.780;9.158;2023-03-08T01:18:45;16.50;;;15.30;;
727;SDS011;347;48.780;9.158;2023-03-08T01:21:11;16.53;;;15.37;;
727;SDS011;347;48.780;9.158;2023-03-08T01:23:37;17.60;;;16.40;;
727;SDS011;347;48.780;9.158;2023-03-08T01:26:07;17.30;;;15.97;;
727;SDS011;347;48.780;9.158;2023-03-08T01:28:38;16.20;;;15.00;;
727;SDS011;347;48.780;9.158;2023-03-08T01:31:05;16.17;;;15.07;;
727;SDS011;347;48.780;9.158;2023-03-08T01:33:32;17.80;;;16.50;;
727;SDS011;347;48.780;9.158;2023-03-08T01:36:01;17.03;;;15.63;;
727;SDS011;347;48.780;9.158;2023-03-08T01:38:31;17.27;;;16.13;;
727;SDS011;347;48.780;9.158;2023-03-08T01:40:57;16.97;;;15.63;;
727;SDS011;347;48.780;9.158;2023-03-08T01:43:28;15.40;;;14.40;;
727;SDS011;347;48.780;9.158;2023-03-08T01:48:42;17.10;;;15.90;;
727;SDS011;347;48.780;9.158;2023-03-08T01:51:25;17.37;;;16.17;;
727;SDS011;347;48.780;9.158;2023-03-08T01:53:59;18.03;;;16.73;;
727;SDS011;347;48.780;9.158;2023-03-08T01:56:28;19.40;;;17.90;;
727;SDS011;347;48.780;9.158;2023-03-08T01:58:54;18.20;;;16.70;;
727;SDS011;347;48.780;9.158;2023-03-08T02:01:21;19.10;;;17.67;;
727;SDS011;347;48.780;9.158;2023-03-08T02:03:46;16.73;;;15.47;;
727;SDS011;347;48.780;9.158;2023-03-08T02:06:13;17.77;;;16.53;;
727;SDS011;347;48.780;9.158;2023-03-08T02:08:40;17.87;;;16.67;;
727;SDS011;347;48.780;9.158;2023-03-08T02:11:06;17.90;;;16.60;;
727;SDS011;347;48.780;9.158;2023-03-08T02:13:32;18.30;;;17.00;;
727;SDS011;347;48.780;9.158;2023-03-08T02:15:58;18.30;;;17.00;;
727;SDS011;347;48.780;9.158;2023-03-08T02:18:26;17.50;;;16.17;;
727;SDS011;347;48.780;9.158;2023-03-08T02:20:52;17.80;;;16.60;;
727;SDS011;347;48.780;9.158;2023-03-08T02:23:24;17.40;;;16.20;;
727;SDS011;347;48.780;9.158;2023-03-08T02:25:57;18.30;;;17.10;;
727;SDS011;347;48.780;9.158;2023-03-08T02:28:26;18.17;;;16.80;;
727;SDS011;347;48.780;9.158;2023-03-08T02:30:54;16.70;;;15.50;;
727;SDS011;347;48.780;9.158;2023-03-08T02:33:20;18.07;;;16.70;;
727;SDS011;347;48.780;9.158;2023-03-08T02:35:47;17.80;;;16.50;;
727;SDS011;347;48.780;9.158;2023-03-08T02:38:13;17.53;;;16.03;;
727;SDS011;347;48.780;9.158;2023-03-08T02:40:41;17.77;;;16.47;;
727;SDS011;347;48.780;9.158;2023-03-08T02:43:06;17.10;;;15.87;;
727;SDS011;347;48.780;9.158;2023-03-08T02:45:33;18.20;;;16.90;;
727;SDS011;347;48.780;9.158;2023-03-08T02:47:59;16.90;;;15.60;;
727;SDS011;347;48.780;9.158;2023-03-08T02:50:25;17.17;;;15.93;;
727;SDS011;347;48.780;9.158;2023-03-08T02:52:51;17.03;;;15.83;;
727;SDS011;347;48.780;9.158;2023-03-08T02:55:17;16.83;;;15.63;;
727;SDS011;347;48.780;9.158;2023-03-08T02:57:42;16.70;;;15.50;;
727;SDS011;347;48.780;9.158;2023-03-08T03:00:08;17.50;;;16.23;;
727;SDS011;347;48.780;9.158;2023-03-08T03:02:34;16.13;;;14.90;;
727;SDS011;347;48.780;9.158;2023-03-08T03:05:03;16.23;;;15.13;;
727;SDS011;347;48.780;9.158;2023-03-08T03:07:34;16.87;;;15.67;;
727;SDS011;347;48.780;9.158;2023-03-08T03:10:01;16.93;;;15.67;;
727;SDS011;347;48.780;9.158;2023-03-08T03:12:28;16.57;;;15.47;;
727;SDS011;347;48.780;9.158;2023-03-08T03:14:54;16.50;;;15.20;;
727;SDS011;347;48.780;9.158;2023-03-08T03:17:20;16.47;;;15.27;;
727;SDS011;347;48.780;9.158;2023-03-08T03:19:46;16.97;;;15.97;;
727;SDS011;347;48.780;9.158;2023-03-08T03:22:11;17.37;;;16.07;;
727;SDS011;347;48.780;9.158;2023-03-08T03:24:37;16.93;;;15.60;;
727;SDS011;347;48.780;9.158;2023-03-08T03:27:03;17.80;;;16.43;;
727;SDS011;347;48.780;9.158;2023-03-08T03:29:28;16.23;;;15.03;;
727;SDS011;347;48.780;9.158;2023-03-08T03:31:54;17.20;;;15.90;;
727;SDS011;347;48.780;9.158;2023-03-08T03:34:20;16.83;;;15.43;;
727;SDS011;347;48.780;9.158;2023-03-08T03:36:46;17.67;;;16.07;;
727;SDS011;347;48.780;9.158;2023-03-08T03:39:11;17.13;;;15.70;;
727;SDS011;347;48.780;9.158;2023-03-08T03:41:37;16.97;;;15.77;;
727;SDS011;347;48.780;9.158;2023-03-08T03:44:03;17.33;;;15.83;;
727;SDS011;347;48.780;9.158;2023-03-08T03:46:29;17.07;;;15.83;;
727;SDS011;347;48.780;9.158;2023-03-08T03:48:54;16.67;;;15.47;;
727;SDS011;347;48.780;9.158;2023-03-08T03:51:20;16.33;;;15.10;;
727;SDS011;347;48.780;9.158;2023-03-08T03:53:47;16.00;;;14.90;;
727;SDS011;347;48.780;9.158;2023-03-08T03:56:14;15.50;;;14.40;;
727;SDS011;347;48.780;9.158;2023-03-08T03:58:44;17.07;;;15.77;;
727;SDS011;347;48.780;9.158;2023-03-08T04:01:14;15.20;;;14.10;;
727;SDS011;347;48.780;9.158;2023-03-08T04:03:42;16.60;;;15.40;;
727;SDS011;347;48.780;9.158;2023-03-08T04:06:08;16.50;;;15.30;;
727;SDS011;347;48.780;9.158;2023-03-08T04:08:44;17.53;;;16.40;;
727;SDS011;347;48.780;9.158;2023-03-08T04:11:12;17.40;;;16.10;;
727;SDS011;347;48.780;9.158;2023-03-08T04:13:40;16.13;;;14.37;;
727;SDS011;347;48.780;9.158;2023-03-08T04:18:39;16.90;;;15.70;;
727;SDS011;347;48.780;9.158;2023-03-08T04:21:05;16.87;;;15.60;;
727;SDS011;347;48.780;9.158;2023-03-08T04:23:30;16.97;;;15.70;;
727;SDS011;347;48.780;9.158;2023-03-08T04:25:56;15.67;;;14.23;;
727;SDS011;347;48.780;9.158;2023-03-08T04:28:22;17.77;;;16.30;;
727;SDS011;347;48.780;9.158;2023-03-08T04:30:48;16.03;;;14.93;;
727;SDS011;347;48.780;9.158;2023-03-08T04:33:14;15.87;;;14.77;;
727;SDS011;347;48.780;9.158;2023-03-08T04:35:39;17.00;;;15.67;;
727;SDS011;347;48.780;9.158;2023-03-08T04:38:05;16.53;;;15.43;;
727;SDS011;347;48.780;9.158;2023-03-08T04:40:31;17.20;;;15.70;;
727;SDS011;347;48.780;9.158;2023-03-08T04:42:56;16.43;;;15.33;;
727;SDS011;347;48.780;9.158;2023-03-08T04:45:22;17.17;;;16.07;;
727;SDS011;347;48.780;9.158;2023-03-08T04:47:48;15.90;;;14.67;;
727;SDS011;347;48.780;9.158;2023-03-08T04:50:14;15.90;;;14.50;;
727;SDS011;347;48.780;9.158;2023-03-08T04:52:39;16.73;;;15.60;;
727;SDS011;347;48.780;9.158;2023-03-08T04:55:05;17.93;;;16.63;;
727;SDS011;347;48.780;9.158;2023-03-08T04:57:31;17.00;;;15.70;;
727;SDS011;347;48.780;9.158;2023-03-08T04:59:59;17.30;;;16.10;;
727;SDS011;347;48.780;9.158;2023-03-08T05:02:24;17.97;;;16.27;;
727;SDS011;347;48.780;9.158;2023-03-08T05:04:50;15.70;;;14.57;;
727;SDS011;347;48.780;9.158;2023-03-08T05:07:15;15.60;;;14.50;;
727;SDS011;347;48.780;9.158;2023-03-08T05:09:41;16.67;;;15.67;;
727;SDS011;347;48.780;9.158;2023-03-08T05:12:07;18.47;;;16.87;;
727;SDS011;347;48.780;9.158;2023-03-08T05:14:33;17.13;;;15.80;;
727;SDS011;347;48.780;9.158;2023-03-08T05:16:58;19.37;;;17.97;;
727;SDS011;347;48.780;9.158;2023-03-08T05:19:24;16.17;;;14.97;;
727;SDS011;347;48.780;9.158;2023-03-08T05:21:50;17.60;;;16.30;;
727;SDS011;347;48.780;9.158;2023-03-08T05:24:15;18.07;;;16.77;;
727;SDS011;347;48.780;9.158;2023-03-08T05:26:42;18.10;;;16.80;;
727;SDS011;347;48.780;9.158;2023-03-08T05:29:08;18.57;;;17.17;;
727;SDS011;347;48.780;9.158;2023-03-08T05:31:33;17.57;;;16.07;;
727;SDS011;347;48.780;9.158;2023-03-08T05:34:01;18.50;;;17.10;;
727;SDS011;347;48.780;9.158;2023-03-08T05:36:27;16.57;;;15.27;;
727;SDS011;347;48.780;9.158;2023-03-08T05:38:53;18.20;;;16.80;;
727;SDS011;347;48.780;9.158;2023-03-08T05:41:19;17.03;;;15.77;;
727;SDS011;347;48.780;9.158;2023-03-08T05:43:45;19.23;;;17.77;;
727;SDS011;347;48.780;9.158;2023-03-08T05:46:12;17.87;;;16.47;;
727;SDS011;347;48.780;9.158;2023-03-08T05:48:39;18.77;;;17.27;;
727;SDS011;347;48.780;9.158;2023-03-08T05:51:05;17.37;;;16.10;;
727;SDS011;347;48.780;9.158;2023-03-08T05:53:35;18.03;;;16.70;;
727;SDS011;347;48.780;9.158;2023-03-08T05:58:46;17.07;;;15.83;;
727;SDS011;347;48.780;9.158;2023-03-08T06:01:13;18.03;;;16.83;;
727;SDS011;347;48.780;9.158;2023-03-08T06:03:44;18.27;;;16.67;;
727;SDS011;347;48.780;9.158;2023-03-08T06:06:12;18.20;;;16.90;;
727;SDS011;347;48.780;9.158;2023-03-08T06:08:38;20.90;;;19.17;;
727;SDS011;347;48.780;9.158;2023-03-08T06:11:04;18.93;;;17.53;;
727;SDS011;347;48.780;9.158;2023-03-08T06:13:30;18.97;;;17.47;;
727;SDS011;347;48.780;9.158;2023-03-08T06:15:57;19.70;;;18.10;;
727;SDS011;347;48.780;9.158;2023-03-08T06:18:24;18.90;;;17.60;;
727;SDS011;347;48.780;9.158;2023-03-08T06:20:57;18.57;;;17.23;;
727;SDS011;347;48.780;9.158;2023-03-08T06:23:24;20.07;;;18.63;;
727;SDS011;347;48.780;9.158;2023-03-08T06:25:50;20.77;;;19.17;;
727;SDS011;347;48.780;9.158;2023-03-08T06:28:16;19.33;;;17.83;;
727;SDS011;347;48.780;9.158;2023-03-08T06:30:41;21.27;;;19.67;;
727;SDS011;347;48.780;9.158;2023-03-08T06:33:07;19.83;;;18.33;;
727;SDS011;347;48.780;9.158;2023-03-08T06:35:33;21.93;;;19.93;;
727;SDS011;347;48.780;9.158;2023-03-08T06:37:58;23.57;;;21.83;;
727;SDS011;347;48.780;9.158;2023-03-08T06:40:24;20.80;;;19.30;;
727;SDS011;347;48.780;9.158;2023-03-08T06:42:49;22.07;;;20.37;;
727;SDS011;347;48.780;9.158;2023-03-08T06:45:15;21.07;;;19.47;;
727;SDS011;347;48.780;9.158;2023-03-08T06:47:41;22.13;;;20.53;;
727;SDS011;347;48.780;9.158;2023-03-08T06:50:06;21.50;;;19.83;;
727;SDS011;347;48.780;9.158;2023-03-08T06:52:33;22.00;;;20.20;;
727;SDS011;347;48.780;9.158;2023-03-08T06:55:02;22.70;;;20.90;;
727;SDS011;347;48.780;9.158;2023-03-08T06:57:29;21.70;;;20.00;;
727;SDS011;347;48.780;9.158;2023-03-08T06:59:54;21.30;;;19.80;;
727;SDS011;347;48.780;9.158;2023-03-08T07:02:20;22.87;;;21.03;;
727;SDS011;347;48.780;9.158;2023-03-08T07:04:46;22.33;;;20.63;;
727;SDS011;347;48.780;9.158;2023-03-08T07:07:11;24.70;;;22.63;;
727;SDS011;347;48.780;9.158;2023-03-08T07:09:37;21.97;;;20.27;;
727;SDS011;347;48.780;9.158;2023-03-08T07:12:02;20.80;;;19.23;;
727;SDS011;347;48.780;9.158;2023-03-08T07:14:28;20.80;;;18.90;;
727;SDS011;347;48.780;9.158;2023-03-08T07:16:54;21.63;;;20.00;;
727;SDS011;347;48.780;9.158;2023-03-08T07:19:19;22.60;;;20.70;;
727;SDS011;347;48.780;9.158;2023-03-08T07:21:45;22.00;;;20.30;;
727;SDS011;347;48.780;9.158;2023-03-08T07:24:11;21.63;;;19.90;;
727;SDS011;347;48.780;9.158;2023-03-08T07:26:36;21.97;;;20.37;;
727;SDS011;347;48.780;9.158;2023-03-08T07:29:02;20.70;;;19.00;;
727;SDS011;347;48.780;9.158;2023-03-08T07:31:28;20.40;;;18.80;;
727;SDS011;347;48.780;9.158;2023-03-08T07:33:55;21.50;;;19.60;;
727;SDS011;347;48.780;9.158;2023-03-08T07:36:20;20.30;;;18.80;;
727;SDS011;347;48.780;9.158;2023-03-08T07:38:46;19.90;;;18.40;;
727;SDS011;347;48.780;9.158;2023-03-08T07:41:12;20.93;;;19.23;;
727;SDS011;347;48.780;9.158;2023-03-08T07:43:37;20.20;;;18.50;;
727;SDS011;347;48.780;9.158;2023-03-08T07:46:03;18.83;;;17.47;;
727;SDS011;347;48.780;9.158;2023-03-08T07:48:29;20.00;;;18.30;;
727;SDS011;347;48.780;9.158;2023-03-08T07:51:14;21.07;;;19.13;;
727;SDS011;347;48.780;9.158;2023-03-08T07:53:40;20.93;;;19.33;;
727;SDS011;347;48.780;9.158;2023-03-08T07:56:05;23.33;;;20.80;;
727;SDS011;347;48.780;9.158;2023-03-08T07:58:31;21.67;;;19.87;;
727;SDS011;347;48.780;9.158;2023-03-08T08:00:57;21.20;;;19.47;;
727;SDS011;347;48.780;9.158;2023-03-08T08:03:23;21.30;;;19.43;;
727;SDS011;347;48.780;9.158;2023-03-08T08:05:48;20.53;;;19.03;;
727;SDS011;347;48.780;9.158;2023-03-08T08:08:14;19.80;;;18.20;;
727;SDS011;347;48.780;9.158;2023-03-08T08:10:40;20.07;;;18.67;;
727;SDS011;347;48.780;9.158;2023-03-08T08:13:06;22.33;;;20.20;;
727;SDS011;347;48.780;9.158;2023-03-08T08:15:32;18.13;;;16.87;;
727;SDS011;347;48.780;9.158;2023-03-08T08:17:58;18.30;;;17.00;;
727;SDS011;347;48.780;9.158;2023-03-08T08:20:24;18.73;;;17.33;;
727;SDS011;347;48.780;9.158;2023-03-08T08:22:51;18.23;;;16.93;;
727;SDS011;347;48.780;9.158;2023-03-08T08:25:18;17.50;;;16.30;;
727;SDS011;347;48.780;9.158;2023-03-08T08:27:44;16.37;;;15.17;;
727;SDS011;347;48.780;9.158;2023-03-08T08:30:11;17.37;;;16.13;;
727;SDS011;347;48.780;9.158;2023-03-08T08:32:38;16.90;;;15.53;;
727;SDS011;347;48.780;9.158;2023-03-08T08:35:04;17.13;;;15.80;;
727;SDS011;347;48.780;9.158;2023-03-08T08:37:31;18.90;;;17.50;;
727;SDS011;347;48.780;9.158;2023-03-08T08:39:57;16.80;;;15.53;;
727;SDS011;347;48.780;9.158;2023-03-08T08:42:23;17.07;;;15.77;;
727;SDS011;347;48.780;9.158;2023-03-08T08:44:51;18.50;;;16.73;;
727;SDS011;347;48.780;9.158;2023-03-08T08:47:17;18.07;;;16.67;;
727;SDS011;347;48.780;9.158;2023-03-08T08:49:43;22.83;;;20.93;;
727;SDS011;347;48.780;9.158;2023-03-08T08:52:08;17.10;;;15.90;;
727;SDS011;347;48.780;9.158;2023-03-08T08:54:34;18.10;;;16.60;;
727;SDS011;347;48.780;9.158;2023-03-08T08:57:03;16.43;;;15.27;;
727;SDS011;347;48.780;9.158;2023-03-08T08:59:30;17.20;;;15.90;;
727;SDS011;347;48.780;9.158;2023-03-08T09:01:56;19.33;;;17.83;;
727;SDS011;347;48.780;9.158;2023-03-08T09:04:22;17.50;;;16.30;;
727;SDS011;347;48.780;9.158;2023-03-08T09:06:47;18.07;;;16.70;;
727;SDS011;347;48.780;9.158;2023-03-08T09:09:13;19.63;;;18.27;;
727;SDS011;347;48.780;9.158;2023-03-08T09:11:39;19.03;;;17.63;;
727;SDS011;347;48.780;9.158;2023-03-08T09:14:05;17.27;;;15.93;;
727;SDS011;347;48.780;9.158;2023-03-08T09:16:31;16.67;;;15.40;;
727;SDS011;347;48.780;9.158;2023-03-08T09:18:58;17.90;;;16.70;;
727;SDS011;347;48.780;9.158;2023-03-08T09:21:26;18.33;;;16.93;;
727;SDS011;347;48.780;9.158;2023-03-08T09:23:52;20.10;;;18.20;;
727;SDS011;347;48.780;9.158;2023-03-08T09:26:18;19.17;;;17.73;;
727;SDS011;347;48.780;9.158;2023-03-08T09:28:44;18.67;;;17.47;;
727;SDS011;347;48.780;9.158;2023-03-08T09:31:12;18.90;;;17.43;;
727;SDS011;347;48.780;9.158;2023-03-08T09:33:46;19.40;;;18.00;;
727;SDS011;347;48.780;9.158;2023-03-08T09:36:13;19.50;;;17.70;;
727;SDS011;347;48.780;9.158;2023-03-08T09:38:40;21.27;;;19.53;;
727;SDS011;347;48.780;9.158;2023-03-08T09:46:57;20.20;;;18.60;;
727;SDS011;347;48.780;9.158;2023-03-08T09:49:37;20.30;;;18.70;;
727;SDS011;347;48.780;9.158;2023-03-08T09:54:55;19.83;;;18.03;;
727;SDS011;347;48.780;9.158;2023-03-08T09:57:34;20.00;;;18.50;;
727;SDS011;347;48.780;9.158;2023-03-08T10:00:04;19.27;;;17.77;;
727;SDS011;347;48.780;9.158;2023-03-08T10:16:18;16.93;;;15.23;;
727;SDS011;347;48.780;9.158;2023-03-08T10:21:35;15.63;;;14.60;;
727;SDS011;347;48.780;9.158;2023-03-08T10:26:31;14.90;;;13.93;;
727;SDS011;347;48.780;9.158;2023-03-08T10:28:58;15.00;;;13.50;;
727;SDS011;347;48.780;9.158;2023-03-08T10:31:25;14.33;;;13.33;;
727;SDS011;347;48.780;9.158;2023-03-08T10:34:02;14.23;;;13.03;;
727;SDS011;347;48.780;9.158;2023-03-08T10:36:52;11.50;;;10.70;;
727;SDS011;347;48.780;9.158;2023-03-08T10:39:25;13.63;;;12.67;;
727;SDS011;347;48.780;9.158;2023-03-08T10:41:57;12.87;;;11.87;;
727;SDS011;347;48.780;9.158;2023-03-08T10:47:16;13.40;;;12.40;;
727;SDS011;347;48.780;9.158;2023-03-08T10:52:38;12.07;;;11.30;;
727;SDS011;347;48.780;9.158;2023-03-08T10:55:15;10.80;;;10.07;;
727;SDS011;347;48.780;9.158;2023-03-08T10:57:48;10.43;;;9.83;;
727;SDS011;347;48.780;9.158;2023-03-08T11:05:36;10.87;;;10.20;;
727;SDS011;347;48.780;9.158;2023-03-08T11:08:02;11.10;;;10.47;;
727;SDS011;347;48.780;9.158;2023-03-08T11:10:28;9.37;;;8.97;;
727;SDS011;347;48.780;9.158;2023-03-08T11:13:07;7.87;;;7.57;;
727;SDS011;347;48.780;9.158;2023-03-08T11:15:41;8.63;;;8.30;;
727;SDS011;347;48.780;9.158;2023-03-08T11:21:02;8.60;;;8.30;;
727;SDS011;347;48.780;9.158;2023-03-08T11:23:38;8.23;;;7.93;;
727;SDS011;347;48.780;9.158;2023-03-08T11:26:14;9.67;;;9.10;;
727;SDS011;347;48.780;9.158;2023-03-08T11:39:16;8.40;;;7.90;;
727;SDS011;347;48.780;9.158;2023-03-08T11:41:55;8.50;;;8.20;;
727;SDS011;347;48.780;9.158;2023-03-08T11:58:37;8.47;;;8.10;;
727;SDS011;347;48.780;9.158;2023-03-08T12:01:17;8.03;;;7.60;;
727;SDS011;347;48.780;9.158;2023-03-08T12:03:51;8.77;;;8.37;;
727;SDS011;347;48.780;9.158;2023-03-08T12:09:00;8.43;;;8.13;;
727;SDS011;347;48.780;9.158;2023-03-08T12:11:37;8.43;;;7.93;;
727;SDS011;347;48.780;9.158;2023-03-08T12:14:31;9.33;;;8.73;;
727;SDS011;347;48.780;9.158;2023-03-08T12:19:51;8.00;;;7.70;;
727;SDS011;347;48.780;9.158;2023-03-08T12:27:31;8.20;;;7.90;;
727;SDS011;347;48.780;9.158;2023-03-08T12:32:30;8.50;;;8.20;;
727;SDS011;347;48.780;9.158;2023-03-08T12:35:04;8.57;;;8.20;;
727;SDS011;347;48.780;9.158;2023-03-08T12:40:48;8.47;;;8.17;;
727;SDS011;347;48.780;9.158;2023-03-08T12:45:44;8.27;;;7.77;;
727;SDS011;347;48.780;9.158;2023-03-08T12:48:33;8.27;;;7.87;;
727;SDS011;347;48.780;9.158;2023-03-08T12:56:19;8.87;;;8.37;;
727;SDS011;347;48.780;9.158;2023-03-08T13:01:31;7.73;;;7.43;;
727;SDS011;347;48.780;9.158;2023-03-08T13:04:27;8.87;;;8.47;;
727;SDS011;347;48.780;9.158;2023-03-08T13:07:12;8.40;;;8.10;;
727;SDS011;347;48.780;9.158;2023-03-08T13:09:58;8.90;;;8.50;;
727;SDS011;347;48.780;9.158;2023-03-08T13:12:39;8.00;;;7.70;;
727;SDS011;347;48.780;9.158;2023-03-08T13:15:33;8.60;;;8.30;;
727;SDS011;347;48.780;9.158;2023-03-08T13:18:00;8.43;;;8.13;;
727;SDS011;347;48.780;9.158;2023-03-08T13:28:12;8.20;;;7.90;;
727;SDS011;347;48.780;9.158;2023-03-08T13:30:50;7.50;;;7.30;;
727;SDS011;347;48.780;9.158;2023-03-08T13:33:25;8.33;;;7.90;;
727;SDS011;347;48.780;9.158;2023-03-08T13:38:29;8.23;;;8.00;;
727;SDS011;347;48.780;9.158;2023-03-08T13:40:57;7.50;;;7.30;;
727;SDS011;347;48.780;9.158;2023-03-08T13:43:24;7.60;;;7.30;;
727;SDS011;347;48.780;9.158;2023-03-08T13:45:53;8.10;;;7.80;;
727;SDS011;347;48.780;9.158;2023-03-08T13:48:21;8.63;;;8.33;;
727;SDS011;347;48.780;9.158;2023-03-08T13:50:50;9.03;;;8.63;;
727;SDS011;347;48.780;9.158;2023-03-08T13:53:18;8.60;;;8.20;;
727;SDS011;347;48.780;9.158;2023-03-08T13:55:49;9.50;;;8.70;;
727;SDS011;347;48.780;9.158;2023-03-08T14:03:41;8.50;;;8.10;;
727;SDS011;347;48.780;9.158;2023-03-08T14:08:48;8.73;;;8.43;;
727;SDS011;347;48.780;9.158;2023-03-08T14:11:24;8.40;;;8.00;;
727;SDS011;347;48.780;9.158;2023-03-08T14:13:53;8.57;;;8.20;;
727;SDS011;347;48.780;9.158;2023-03-08T14:16:24;9.20;;;8.80;;
727;SDS011;347;48.780;9.158;2023-03-08T14:18:57;8.53;;;8.23;;
727;SDS011;347;48.780;9.158;2023-03-08T14:21:27;8.30;;;8.10;;
727;SDS011;347;48.780;9.158;2023-03-08T14:23:58;7.47;;;7.27;;
727;SDS011;347;48.780;9.158;2023-03-08T14:29:09;9.07;;;8.70;;
727;SDS011;347;48.780;9.158;2023-03-08T14:34:30;9.53;;;9.03;;
727;SDS011;347;48.780;9.158;2023-03-08T14:37:21;7.77;;;7.57;;
727;SDS011;347;48.780;9.158;2023-03-08T14:39:46;9.13;;;8.73;;
727;SDS011;347;48.780;9.158;2023-03-08T14:42:17;23.57;;;8.03;;
727;SDS011;347;48.780;9.158;2023-03-08T14:45:20;7.90;;;7.70;;
727;SDS011;347;48.780;9.158;2023-03-08T14:47:56;8.90;;;8.70;;
727;SDS011;347;48.780;9.158;2023-03-08T14:52:58;8.13;;;7.93;;
727;SDS011;347;48.780;9.158;2023-03-08T14:55:26;8.03;;;7.83;;
727;SDS011;347;48.780;9.158;2023-03-08T14:58:09;8.07;;;7.77;;
727;SDS011;347;48.780;9.158;2023-03-08T15:00:47;8.53;;;8.23;;
727;SDS011;347;48.780;9.158;2023-03-08T15:03:16;7.77;;;7.57;;
727;SDS011;347;48.780;9.158;2023-03-08T15:05:42;9.00;;;8.50;;
727;SDS011;347;48.780;9.158;2023-03-08T15:08:09;7.83;;;7.53;;
727;SDS011;347;48.780;9.158;2023-03-08T15:10:38;8.43;;;8.13;;
727;SDS011;347;48.780;9.158;2023-03-08T15:13:05;8.87;;;8.47;;
727;SDS011;347;48.780;9.158;2023-03-08T15:15:35;7.37;;;7.17;;
727;SDS011;347;48.780;9.158;2023-03-08T15:18:01;8.67;;;8.30;;
727;SDS011;347;48.780;9.158;2023-03-08T15:20:26;8.73;;;8.30;;
727;SDS011;347;48.780;9.158;2023-03-08T15:22:57;9.03;;;8.83;;
727;SDS011;347;48.780;9.158;2023-03-08T15:25:33;9.07;;;8.80;;
727;SDS011;347;48.780;9.158;2023-03-08T15:28:01;9.00;;;8.70;;
727;SDS011;347;48.780;9.158;2023-03-08T15:30:27;8.50;;;8.20;;
727;SDS011;347;48.780;9.158;2023-03-08T15:32:54;8.87;;;8.37;;
727;SDS011;347;48.780;9.158;2023-03-08T15:35:20;8.67;;;8.37;;
727;SDS011;347;48.780;9.158;2023-03-08T15:37:46;7.57;;;7.27;;
727;SDS011;347;48.780;9.158;2023-03-08T15:40:16;7.40;;;7.20;;
727;SDS011;347;48.780;9.158;2023-03-08T15:42:47;8.63;;;8.20;;
727;SDS011;347;48.780;9.158;2023-03-08T15:45:12;8.40;;;8.00;;
727;SDS011;347;48.780;9.158;2023-03-08T15:47:39;8.60;;;8.30;;
727;SDS011;347;48.780;9.158;2023-03-08T15:50:05;8.33;;;8.03;;
727;SDS011;347;48.780;9.158;2023-03-08T15:52:38;7.90;;;7.50;;
727;SDS011;347;48.780;9.158;2023-03-08T15:55:03;8.30;;;8.00;;
727;SDS011;347;48.780;9.158;2023-03-08T15:57:30;9.17;;;8.63;;
727;SDS011;347;48.780;9.158;2023-03-08T15:59:56;8.93;;;8.30;;
727;SDS011;347;48.780;9.158;2023-03-08T16:02:22;8.27;;;7.97;;
727;SDS011;347;48.780;9.158;2023-03-08T16:04:48;8.40;;;8.10;;
727;SDS011;347;48.780;9.158;2023-03-08T16:07:19;8.20;;;8.00;;
727;SDS011;347;48.780;9.158;2023-03-08T16:09:45;7.60;;;7.40;;
727;SDS011;347;48.780;9.158;2023-03-08T16:12:12;7.43;;;7.13;;
727;SDS011;347;48.780;9.158;2023-03-08T16:14:38;7.67;;;7.37;;
727;SDS011;347;48.780;9.158;2023-03-08T16:17:10;7.83;;;7.63;;
727;SDS011;347;48.780;9.158;2023-03-08T16:19:35;8.30;;;7.97;;
727;SDS011;347;48.780;9.158;2023-03-08T16:22:01;7.27;;;7.00;;
727;SDS011;347;48.780;9.158;2023-03-08T16:24:27;7.70;;;7.30;;
727;SDS011;347;48.780;9.158;2023-03-08T16:26:53;7.67;;;7.47;;
727;SDS011;347;48.780;9.158;2023-03-08T16:29:20;8.17;;;7.90;;
727;SDS011;347;48.780;9.158;2023-03-08T16:31:46;7.37;;;7.17;;
727;SDS011;347;48.780;9.158;2023-03-08T16:34:12;7.40;;;7.10;;
727;SDS011;347;48.780;9.158;2023-03-08T16:36:38;6.93;;;6.73;;
727;SDS011;347;48.780;9.158;2023-03-08T16:39:05;7.43;;;7.13;;
727;SDS011;347;48.780;9.158;2023-03-08T16:41:38;8.10;;;7.90;;
727;SDS011;347;48.780;9.158;2023-03-08T16:44:05;7.57;;;7.37;;
727;SDS011;347;48.780;9.158;2023-03-08T16:46:31;8.13;;;7.83;;
727;SDS011;347;48.780;9.158;2023-03-08T16:48:57;8.50;;;8.00;;
727;SDS011;347;48.780;9.158;2023-03-08T16:51:27;7.30;;;7.10;;
727;SDS011;347;48.780;9.158;2023-03-08T16:53:54;7.80;;;7.60;;
727;SDS011;347;48.780;9.158;2023-03-08T16:56:21;7.60;;;7.40;;
727;SDS011;347;48.780;9.158;2023-03-08T16:58:48;7.60;;;7.40;;
727;SDS011;347;48.780;9.158;2023-03-08T17:01:15;7.47;;;7.27;;
727;SDS011;347;48.780;9.158;2023-03-08T17:03:42;6.90;;;6.60;;
727;SDS011;347;48.780;9.158;2023-03-08T17:06:08;7.43;;;7.10;;
727;SDS011;347;48.780;9.158;2023-03-08T17:08:35;6.60;;;6.40;;
727;SDS011;347;48.780;9.158;2023-03-08T17:11:01;6.97;;;6.77;;
727;SDS011;347;48.780;9.158;2023-03-08T17:13:29;7.07;;;6.77;;
727;SDS011;347;48.780;9.158;2023-03-08T17:15:55;7.23;;;7.03;;
727;SDS011;347;48.780;9.158;2023-03-08T17:18:20;7.30;;;7.10;;
727;SDS011;347;48.780;9.158;2023-03-08T17:20:48;8.40;;;8.20;;
727;SDS011;347;48.780;9.158;2023-03-08T17:23:15;7.80;;;7.53;;
727;SDS011;347;48.780;9.158;2023-03-08T17:25:41;7.80;;;7.50;;
727;SDS011;347;48.780;9.158;2023-03-08T17:28:08;6.90;;;6.70;;
727;SDS011;347;48.780;9.158;2023-03-08T17:30:35;7.07;;;6.87;;
727;SDS011;347;48.780;9.158;2023-03-08T17:33:03;7.67;;;7.37;;
727;SDS011;347;48.780;9.158;2023-03-08T17:35:29;7.67;;;7.30;;
727;SDS011;347;48.780;9.158;2023-03-08T17:37:54;6.97;;;6.77;;
727;SDS011;347;48.780;9.158;2023-03-08T17:40:20;6.90;;;6.70;;